createdAt,value
2018-06-13T00:00:31.392Z,4.60
2018-06-13T00:03:35.768Z,5.10
2018-06-13T00:06:40.040Z,4.20
2018-06-13T00:09:44.497Z,4.33
2018-06-13T00:12:48.562Z,5.07
2018-06-13T00:15:52.256Z,4.13
2018-06-13T00:18:56.540Z,4.67
2018-06-13T00:22:01.866Z,4.80
2018-06-13T00:25:06.624Z,4.60
2018-06-13T00:28:10.910Z,4.57
2018-06-13T00:31:15.239Z,4.50
2018-06-13T00:34:19.554Z,4.20
2018-06-13T00:37:23.891Z,4.20
2018-06-13T00:40:29.577Z,4.40
2018-06-13T00:43:33.677Z,4.20
2018-06-13T00:46:37.754Z,4.20
2018-06-13T00:49:41.943Z,4.30
2018-06-13T00:52:46.150Z,4.37
2018-06-13T00:56:01.427Z,4.23
2018-06-13T00:59:05.726Z,4.73
2018-06-13T01:02:10.100Z,4.40
2018-06-13T01:05:14.646Z,5.10
2018-06-13T01:08:19.104Z,4.40
2018-06-13T01:11:29.509Z,4.23
2018-06-13T01:14:33.850Z,4.27
2018-06-13T01:17:37.817Z,4.67
2018-06-13T01:20:41.680Z,4.70
2018-06-13T01:23:45.638Z,4.13
2018-06-13T01:26:49.487Z,4.60
2018-06-13T01:29:53.992Z,4.37
2018-06-13T01:32:58.286Z,4.30
2018-06-13T01:36:02.699Z,3.90
2018-06-13T01:39:07.959Z,4.37
2018-06-13T01:42:12.307Z,4.30
2018-06-13T01:45:16.601Z,4.47
2018-06-13T01:48:21.031Z,3.37
2018-06-13T01:51:25.298Z,3.83
2018-06-13T01:54:29.582Z,5.10
2018-06-13T01:57:33.936Z,5.13
2018-06-13T02:00:38.266Z,4.20
2018-06-13T02:03:42.649Z,3.80
2018-06-13T02:06:46.953Z,4.60
2018-06-13T02:09:51.305Z,4.80
2018-06-13T02:12:55.589Z,5.50
2018-06-13T02:16:01.370Z,4.73
2018-06-13T02:19:05.641Z,4.97
2018-06-13T02:22:09.930Z,4.53
2018-06-13T02:25:14.131Z,5.70
2018-06-13T02:28:18.415Z,4.37
2018-06-13T02:31:22.766Z,5.00
2018-06-13T02:34:27.218Z,4.93
2018-06-13T02:37:31.426Z,4.93
2018-06-13T02:40:35.777Z,5.10
2018-06-13T02:43:40.171Z,5.57
2018-06-13T02:46:44.525Z,5.33
2018-06-13T02:49:48.871Z,5.70
2018-06-13T02:52:53.103Z,5.30
2018-06-13T02:55:57.329Z,5.50
2018-06-13T02:59:01.954Z,5.53
2018-06-13T03:02:06.304Z,5.67
2018-06-13T03:05:10.793Z,5.53
2018-06-13T03:08:14.907Z,6.10
2018-06-13T03:11:19.250Z,5.20
2018-06-13T03:14:23.458Z,5.20
2018-06-13T03:17:27.721Z,5.73
2018-06-13T03:20:32.028Z,6.03
2018-06-13T03:23:36.415Z,5.43
2018-06-13T03:26:40.444Z,5.83
2018-06-13T03:29:44.622Z,5.73
2018-06-13T03:32:48.815Z,5.10
2018-06-13T03:35:53.132Z,5.43
2018-06-13T03:38:57.467Z,5.80
2018-06-13T03:42:01.756Z,5.10
2018-06-13T03:45:06.019Z,4.50
2018-06-13T03:48:10.322Z,5.70
2018-06-13T03:51:14.682Z,4.43
2018-06-13T03:54:18.904Z,5.20
2018-06-13T03:57:23.222Z,4.43
2018-06-13T04:00:27.419Z,4.17
2018-06-13T04:03:31.541Z,4.47
2018-06-13T04:06:35.788Z,4.40
2018-06-13T04:09:40.176Z,4.33
2018-06-13T04:12:44.520Z,5.20
2018-06-13T04:15:48.622Z,4.20
2018-06-13T04:18:52.749Z,4.27
2018-06-13T04:21:56.935Z,5.30
2018-06-13T04:25:01.258Z,4.60
2018-06-13T04:28:06.331Z,4.33
2018-06-13T04:31:10.503Z,5.73
2018-06-13T04:34:15.391Z,5.33
2018-06-13T04:37:19.587Z,3.93
2018-06-13T04:40:23.913Z,5.27
2018-06-13T04:43:28.154Z,5.60
2018-06-13T04:46:32.253Z,6.30
2018-06-13T04:49:36.634Z,4.67
2018-06-13T04:52:40.960Z,5.17
2018-06-13T04:55:45.335Z,5.23
2018-06-13T04:58:49.616Z,5.50
2018-06-13T05:01:54.068Z,5.30
2018-06-13T05:04:58.375Z,5.80
2018-06-13T05:08:02.744Z,5.30
2018-06-13T05:11:07.241Z,4.85
2018-06-13T05:14:11.698Z,5.20
2018-06-13T05:17:16.141Z,4.70
2018-06-13T05:20:20.512Z,5.13
2018-06-13T05:23:24.881Z,5.10
2018-06-13T05:26:29.282Z,4.87
2018-06-13T05:29:33.553Z,4.00
2018-06-13T05:32:37.734Z,4.00
2018-06-13T05:35:42.247Z,3.40
2018-06-13T05:38:46.422Z,3.87
2018-06-13T05:41:50.791Z,4.43
2018-06-13T05:44:55.091Z,3.60
2018-06-13T05:48:00.038Z,4.80
2018-06-13T05:51:04.316Z,4.60
2018-06-13T05:54:08.617Z,4.23
2018-06-13T05:57:12.975Z,3.90
2018-06-13T06:00:17.332Z,4.40
2018-06-13T06:03:21.605Z,4.00
2018-06-13T06:06:26.067Z,4.77
2018-06-13T06:09:30.358Z,4.10
2018-06-13T06:12:34.536Z,4.20
2018-06-13T06:15:38.858Z,4.20
2018-06-13T06:18:43.000Z,3.60
2018-06-13T06:21:47.476Z,4.13
2018-06-13T06:24:51.704Z,4.10
2018-06-13T06:27:55.873Z,3.97
2018-06-13T06:31:00.461Z,3.00
2018-06-13T06:34:04.771Z,3.70
2018-06-13T06:37:09.096Z,3.83
2018-06-13T06:40:13.215Z,3.10
2018-06-13T06:43:17.529Z,2.97
2018-06-13T06:46:21.757Z,2.67
2018-06-13T06:49:26.055Z,3.00
2018-06-13T06:52:30.662Z,3.20
2018-06-13T06:55:34.992Z,2.90
2018-06-13T06:58:39.342Z,3.37
2018-06-13T07:01:43.710Z,3.13
2018-06-13T07:04:48.016Z,3.00
2018-06-13T07:07:52.352Z,3.73
2018-06-13T07:10:56.743Z,3.90
2018-06-13T07:14:01.143Z,3.90
2018-06-13T07:17:05.422Z,3.20
2018-06-13T07:20:09.792Z,3.23
2018-06-13T07:23:14.036Z,3.23
2018-06-13T07:26:18.317Z,3.83
2018-06-13T07:29:22.670Z,3.40
2018-06-13T07:32:26.873Z,3.70
2018-06-13T07:35:31.260Z,3.70
2018-06-13T07:38:35.710Z,3.47
2018-06-13T07:41:39.844Z,4.50
2018-06-13T07:44:44.159Z,3.43
2018-06-13T07:47:49.466Z,3.67
2018-06-13T07:50:53.685Z,3.50
2018-06-13T07:53:57.887Z,3.60
2018-06-13T07:57:02.060Z,3.50
2018-06-13T08:00:06.368Z,3.90
2018-06-13T08:03:10.655Z,3.53
2018-06-13T08:06:14.869Z,3.43
2018-06-13T08:09:19.034Z,3.43
2018-06-13T08:12:23.348Z,4.17
2018-06-13T08:15:33.779Z,3.23
2018-06-13T08:18:38.250Z,3.27
2018-06-13T08:21:42.623Z,2.70
2018-06-13T08:24:54.923Z,2.83
2018-06-13T08:27:59.288Z,2.70
2018-06-13T08:31:03.762Z,3.43
2018-06-13T08:34:07.747Z,4.23
2018-06-13T08:37:12.234Z,3.67
2018-06-13T08:40:16.755Z,4.50
2018-06-13T08:43:21.114Z,4.10
2018-06-13T08:46:25.477Z,3.77
2018-06-13T08:49:29.759Z,3.20
2018-06-13T08:52:34.242Z,3.50
2018-06-13T08:55:38.399Z,3.63
2018-06-13T08:58:42.743Z,2.97
2018-06-13T09:01:47.064Z,4.00
2018-06-13T09:04:51.568Z,4.60
2018-06-13T09:07:55.519Z,3.10
2018-06-13T09:10:59.450Z,3.40
2018-06-13T09:14:03.632Z,3.30
2018-06-13T09:17:07.994Z,3.67
2018-06-13T09:20:11.878Z,4.13
2018-06-13T09:23:15.770Z,3.40
2018-06-13T09:26:19.998Z,3.50
2018-06-13T09:29:23.871Z,3.50
2018-06-13T09:32:28.041Z,3.13
2018-06-13T09:35:32.450Z,3.87
2018-06-13T09:38:36.727Z,3.20
2018-06-13T09:41:46.169Z,3.27
2018-06-13T09:44:50.474Z,3.40
2018-06-13T09:47:54.940Z,3.20
2018-06-13T09:50:59.126Z,4.20
2018-06-13T09:54:03.044Z,3.63
2018-06-13T09:57:06.957Z,3.20
2018-06-13T10:00:16.160Z,3.20
2018-06-13T10:03:20.090Z,3.20
2018-06-13T10:06:24.122Z,3.40
2018-06-13T10:09:28.424Z,3.87
2018-06-13T10:12:32.779Z,3.57
2018-06-13T10:15:37.023Z,3.20
2018-06-13T10:18:40.696Z,2.97
2018-06-13T10:21:44.830Z,3.00
2018-06-13T10:24:49.350Z,3.00
2018-06-13T10:27:53.565Z,3.20
2018-06-13T10:30:58.090Z,2.40
2018-06-13T10:34:02.317Z,3.80
2018-06-13T10:37:06.782Z,3.50
2018-06-13T10:40:11.079Z,3.67
2018-06-13T10:43:15.029Z,3.10
2018-06-13T10:46:18.930Z,2.97
2018-06-13T10:49:22.854Z,2.83
2018-06-13T10:52:27.165Z,2.90
2018-06-13T10:55:31.658Z,2.50
2018-06-13T10:58:36.320Z,3.57
2018-06-13T11:01:40.539Z,2.73
2018-06-13T11:04:44.900Z,2.20
2018-06-13T11:07:49.141Z,3.23
2018-06-13T11:10:53.493Z,3.40
2018-06-13T11:13:57.912Z,2.83
2018-06-13T11:17:02.140Z,2.80
2018-06-13T11:20:06.643Z,2.80
2018-06-13T11:23:10.849Z,3.30
2018-06-13T11:26:15.208Z,2.50
2018-06-13T11:29:19.511Z,2.93
2018-06-13T11:32:23.651Z,2.77
2018-06-13T11:35:28.002Z,2.87
2018-06-13T11:38:31.877Z,3.23
2018-06-13T11:41:36.771Z,3.43
2018-06-13T11:44:41.332Z,3.10
2018-06-13T11:47:45.819Z,3.37
2018-06-13T11:50:50.342Z,3.83
2018-06-13T11:53:54.627Z,2.97
2018-06-13T11:56:59.131Z,3.70
2018-06-13T12:00:03.525Z,2.90
2018-06-13T12:03:07.470Z,3.07
2018-06-13T12:06:11.531Z,3.47
2018-06-13T12:09:15.839Z,3.40
2018-06-13T12:12:20.150Z,3.40
2018-06-13T12:15:24.044Z,4.13
2018-06-13T12:18:28.281Z,3.00
2018-06-13T12:21:32.552Z,2.80
2018-06-13T12:24:36.562Z,3.43
2018-06-13T12:27:40.461Z,3.23
2018-06-13T12:30:44.325Z,3.10
2018-06-13T12:33:48.742Z,3.87
2018-06-13T12:36:53.026Z,2.93
2018-06-13T12:39:57.585Z,3.60
2018-06-13T12:43:02.057Z,2.90
2018-06-13T12:46:07.270Z,3.17
2018-06-13T12:49:11.735Z,3.63
2018-06-13T12:52:15.896Z,3.23
2018-06-13T12:55:20.014Z,3.87
2018-06-13T12:58:24.740Z,2.90
2018-06-13T13:01:29.786Z,3.50
2018-06-13T13:04:34.116Z,3.30
2018-06-13T13:07:38.346Z,3.50
2018-06-13T13:10:42.714Z,3.80
2018-06-13T13:13:47.009Z,3.80
2018-06-13T13:16:51.355Z,3.73
2018-06-13T13:19:55.791Z,3.93
2018-06-13T13:22:59.973Z,4.00
2018-06-13T13:26:04.361Z,4.47
2018-06-13T13:29:08.475Z,4.97
2018-06-13T13:32:12.907Z,4.33
2018-06-13T13:35:17.111Z,4.97
2018-06-13T13:38:21.406Z,4.47
2018-06-13T13:41:25.908Z,4.60
2018-06-13T13:44:30.417Z,5.30
2018-06-13T13:47:34.981Z,5.87
2018-06-13T13:50:39.329Z,4.83
2018-06-13T13:53:43.849Z,5.17
2018-06-13T13:56:48.133Z,4.30
2018-06-13T13:59:52.304Z,4.43
2018-06-13T14:02:56.704Z,4.40
2018-06-13T14:06:00.853Z,5.17
2018-06-13T14:09:06.807Z,4.83
2018-06-13T14:12:11.187Z,2.70
2018-06-13T14:15:15.807Z,2.33
2018-06-13T14:18:19.473Z,1.67
2018-06-13T14:21:23.663Z,2.67
2018-06-13T14:24:27.926Z,1.87
2018-06-13T14:27:32.313Z,2.53
2018-06-13T14:30:36.644Z,1.70
2018-06-13T14:33:40.915Z,2.20
2018-06-13T14:36:45.181Z,2.30
2018-06-13T14:39:49.480Z,2.97
2018-06-13T14:42:53.883Z,1.87
2018-06-13T14:45:58.134Z,2.23
2018-06-13T14:49:02.700Z,3.33
2018-06-13T14:52:07.251Z,3.30
2018-06-13T14:55:11.499Z,3.47
2018-06-13T14:58:16.286Z,2.20
2018-06-13T15:01:20.597Z,2.30
2018-06-13T15:04:31.519Z,2.47
2018-06-13T15:07:35.824Z,3.63
2018-06-13T15:10:39.818Z,2.70
2018-06-13T15:13:43.758Z,2.47
2018-06-13T15:16:47.844Z,3.30
2018-06-13T15:19:51.815Z,2.83
2018-06-13T15:22:56.181Z,3.40
2018-06-13T15:26:00.666Z,2.63
2018-06-13T15:29:05.104Z,3.17
2018-06-13T15:32:09.144Z,2.43
2018-06-13T15:35:13.540Z,2.87
2018-06-13T15:38:17.963Z,3.13
2018-06-13T15:41:22.520Z,3.27
2018-06-13T15:44:27.032Z,2.73
2018-06-13T15:47:31.406Z,3.13
2018-06-13T15:50:35.373Z,3.03
2018-06-13T15:53:39.652Z,3.43
2018-06-13T15:56:43.457Z,2.93
2018-06-13T15:59:47.578Z,3.50
2018-06-13T16:02:51.943Z,3.47
2018-06-13T16:05:56.461Z,3.53
2018-06-13T16:09:00.941Z,3.10
2018-06-13T16:12:05.181Z,3.10
2018-06-13T16:15:09.707Z,3.70
2018-06-13T16:18:14.405Z,3.47
2018-06-13T16:21:18.783Z,4.17
2018-06-13T16:24:22.857Z,4.00
2018-06-13T16:27:26.851Z,3.07
2018-06-13T16:30:31.234Z,3.40
2018-06-13T16:33:35.194Z,3.53
2018-06-13T16:36:39.245Z,2.97
2018-06-13T16:39:43.336Z,2.73
2018-06-13T16:42:47.402Z,2.87
2018-06-13T16:45:51.437Z,2.30
2018-06-13T16:48:55.439Z,2.13
2018-06-13T16:51:59.502Z,1.90
2018-06-13T16:55:20.205Z,2.10
2018-06-13T16:58:24.226Z,1.90
2018-06-13T17:01:28.184Z,2.50
2018-06-13T17:04:32.277Z,2.30
2018-06-13T17:07:36.229Z,2.83
2018-06-13T17:10:40.189Z,3.07
2018-06-13T17:13:44.201Z,2.50
2018-06-13T17:16:48.243Z,2.87
2018-06-13T17:19:52.326Z,2.63
2018-06-13T17:22:56.345Z,2.33
2018-06-13T17:26:00.535Z,2.20
2018-06-13T17:29:04.674Z,3.53
2018-06-13T17:32:08.688Z,2.03
2018-06-13T17:35:12.602Z,1.80
2018-06-13T17:38:16.993Z,2.07
2018-06-13T17:41:21.122Z,2.30
2018-06-13T17:44:25.540Z,1.80
2018-06-13T17:47:29.810Z,1.97
2018-06-13T17:50:34.122Z,1.83
2018-06-13T17:53:38.509Z,1.87
2018-06-13T17:56:42.858Z,1.70
2018-06-13T17:59:47.219Z,1.67
2018-06-13T18:02:51.844Z,1.53
2018-06-13T18:05:56.230Z,1.77
2018-06-13T18:09:01.264Z,1.40
2018-06-13T18:12:05.427Z,1.30
2018-06-13T18:15:09.490Z,1.17
2018-06-13T18:18:13.976Z,1.47
2018-06-13T18:21:18.702Z,1.73
2018-06-13T18:24:23.211Z,1.30
2018-06-13T18:27:27.970Z,1.30
2018-06-13T18:30:31.954Z,1.30
2018-06-13T18:33:36.069Z,1.40
2018-06-13T18:36:40.528Z,1.40
2018-06-13T18:39:44.960Z,1.60
2018-06-13T18:42:49.316Z,1.30
2018-06-13T18:45:53.902Z,1.00
2018-06-13T18:48:58.494Z,1.60
2018-06-13T18:52:02.800Z,1.10
2018-06-13T18:55:07.081Z,1.80
2018-06-13T18:58:11.510Z,1.30
2018-06-13T19:01:15.788Z,1.20
2018-06-13T19:04:20.110Z,0.83
2018-06-13T19:07:24.347Z,1.20
2018-06-13T19:10:29.025Z,1.00
2018-06-13T19:13:33.615Z,0.83
2018-06-13T19:16:37.889Z,1.30
2018-06-13T19:19:42.395Z,1.00
2018-06-13T19:22:47.785Z,1.00
2018-06-13T19:25:52.152Z,0.90
2018-06-13T19:28:56.416Z,1.03
2018-06-13T19:32:01.204Z,0.83
2018-06-13T19:35:05.633Z,0.90
2018-06-13T19:38:10.313Z,0.97
2018-06-13T19:41:15.676Z,0.97
2018-06-13T19:44:20.428Z,1.23
2018-06-13T19:47:29.997Z,0.70
2018-06-13T19:50:34.515Z,0.67
2018-06-13T19:53:44.289Z,1.10
2018-06-13T19:56:48.394Z,1.23
2018-06-13T19:59:55.259Z,1.20
2018-06-13T20:03:04.669Z,1.00
2018-06-13T20:06:09.533Z,1.20
2018-06-13T20:09:13.933Z,1.30
2018-06-13T20:12:55.928Z,1.10
2018-06-13T20:16:05.623Z,1.73
2018-06-13T20:19:15.066Z,1.20
2018-06-13T20:22:19.370Z,1.80
2018-06-13T20:25:28.663Z,1.20
2018-06-13T20:28:38.107Z,1.17
2018-06-13T20:31:44.579Z,1.37
2018-06-13T20:34:49.068Z,2.57
2018-06-13T20:37:53.410Z,1.77
2018-06-13T20:40:57.801Z,1.80
2018-06-13T20:44:02.169Z,1.53
2018-06-13T20:47:06.667Z,3.63
2018-06-13T20:50:10.994Z,1.63
2018-06-13T20:53:15.229Z,1.53
2018-06-13T20:56:19.619Z,1.70
2018-06-13T20:59:23.855Z,1.33
2018-06-13T21:02:28.314Z,1.57
2018-06-13T21:05:32.666Z,2.27
2018-06-13T21:08:37.015Z,2.10
2018-06-13T21:11:41.497Z,1.80
2018-06-13T21:14:46.082Z,1.40
2018-06-13T21:17:50.386Z,1.73
2018-06-13T21:20:54.802Z,1.40
2018-06-13T21:23:59.078Z,1.73
2018-06-13T21:27:03.892Z,1.17
2018-06-13T21:30:08.491Z,1.90
2018-06-13T21:33:12.974Z,1.77
2018-06-13T21:36:17.185Z,1.83
2018-06-13T21:39:21.495Z,1.40
2018-06-13T21:42:25.854Z,1.67
2018-06-13T21:45:29.837Z,1.30
2018-06-13T21:48:33.835Z,1.40
2018-06-13T21:51:37.787Z,1.23
2018-06-13T21:54:42.082Z,2.10
2018-06-13T21:57:46.317Z,1.70
2018-06-13T22:00:50.572Z,1.83
2018-06-13T22:03:54.863Z,1.10
2018-06-13T22:06:59.131Z,1.43
2018-06-13T22:10:03.542Z,1.50
2018-06-13T22:13:07.216Z,1.80
2018-06-13T22:16:11.524Z,1.20
2018-06-13T22:19:15.754Z,1.37
2018-06-13T22:22:20.076Z,1.70
2018-06-13T22:25:24.213Z,1.30
2018-06-13T22:28:28.629Z,1.40
2018-06-13T22:31:32.953Z,1.30
2018-06-13T22:34:36.922Z,1.17
2018-06-13T22:37:41.012Z,1.40
2018-06-13T22:40:44.456Z,1.50
2018-06-13T22:43:48.506Z,1.50
2018-06-13T22:46:52.589Z,2.20
2018-06-13T22:49:56.589Z,1.20
2018-06-13T22:53:00.550Z,1.47
2018-06-13T22:56:04.510Z,1.20
2018-06-13T22:59:08.408Z,1.40
2018-06-13T23:02:12.025Z,1.00
2018-06-13T23:05:16.030Z,1.70
2018-06-13T23:08:20.058Z,1.03
2018-06-13T23:11:24.488Z,1.27
2018-06-13T23:14:28.693Z,1.10
2018-06-13T23:17:32.970Z,0.97
2018-06-13T23:20:37.254Z,1.57
2018-06-13T23:23:42.346Z,1.00
2018-06-13T23:26:46.628Z,1.27
2018-06-13T23:29:50.570Z,1.23
2018-06-13T23:32:54.566Z,1.20
2018-06-13T23:35:58.510Z,1.20
2018-06-13T23:39:02.512Z,1.30
2018-06-13T23:42:07.125Z,1.10
2018-06-13T23:45:11.414Z,1.20
2018-06-13T23:48:20.084Z,1.13
2018-06-13T23:51:24.786Z,1.40
2018-06-13T23:54:29.207Z,1.13
2018-06-13T23:57:33.710Z,1.10
